Decoded Metar for KSRQ (SARASOTA/BRADENT in FL, USA) (IATA:SRQ) | Meteo·Mobile Aviation Weather
aviador You're here:

KSRQ Decoded Metar

SARASOTA/BRADENT in FL, USA
Report Time2019-05-25 21:53:00
UTC Time2019-05-25 22:54:12
Flight Rules vfr VFR
Wind070° at 09 kt
W.Decomp.*RWY 04: 7.4 kt HW 5.2 kt RCW
RWY 14: 3.8 kt HW 8.2 kt LCW
Visibility9999 m
Phenomena:N/A
Clouds:Broken 070 Hf
Expected CloudBase > 6,800 ft AGL from Temp-Dew spread
Ceiling7,000 ft
Temp34°C (ISA +19)
Dew Point17°C (36% RH)
Heat Index34.5°C
AAT33.1°C
QNH1017 hPa
Density Alt2,356 ft
Elevation59 ft
Report Wrong Elevation
Raw Report
KSRQ 252153Z 07009KT 10SM BKN070 34/17 A3003 RMK AO2 SLP167
T03390172=

Extra information for KSRQ:More info

Metar Taf Metar & Taf Last 4 Metars F.Rules Stats Wind Profile Meteogram Temp Stats Airport Information Weather charts Add Link Nearby VenuesMetar ALERT Operation Metar Decoded Social comments

AIRNAV info for KSRQ